TimeEDT,TemperatureF,Dew PointF,Humidity,Sea Level PressureIn,VisibilityMPH,Wind Direction,Wind SpeedMPH,Gust SpeedMPH,PrecipitationIn,Events,Conditions,WindDirDegrees,DateUTC
12:53 AM,48.0,46.0,93,30.09,8.0,NNW,5.8,-,N/A,,Clear,340,2012-10-10 04:53:00
1:53 AM,48.9,46.9,93,30.07,8.0,North,4.6,-,N/A,,Mostly Cloudy,360,2012-10-10 05:53:00
2:53 AM,46.9,46.0,97,30.05,6.0,WNW,3.5,-,N/A,,Overcast,300,2012-10-10 06:53:00
3:53 AM,46.0,44.1,93,30.03,3.0,NNW,5.8,-,N/A,,Clear,340,2012-10-10 07:53:00
4:53 AM,48.0,46.9,96,30.03,6.0,Calm,Calm,-,N/A,,Overcast,0,2012-10-10 08:53:00
5:22 AM,48.2,46.4,93,29.99,6.0,Calm,Calm,-,N/A,,Overcast,0,2012-10-10 09:22:00
5:53 AM,46.9,46.0,97,30.03,6.0,Calm,Calm,-,N/A,,Scattered Clouds,0,2012-10-10 09:53:00
6:39 AM,46.4,44.6,93,29.99,4.0,NNW,6.9,-,N/A,,Mostly Cloudy,340,2012-10-10 10:39:00
6:53 AM,46.0,45.0,96,30.03,5.0,NNW,3.5,-,N/A,,Overcast,330,2012-10-10 10:53:00
7:00 AM,46.4,46.4,100,29.99,2.0,Calm,Calm,-,N/A,,Overcast,0,2012-10-10 11:00:00
7:48 AM,48.2,48.2,100,29.99,1.0,Calm,Calm,-,N/A,,Overcast,0,2012-10-10 11:48:00
7:53 AM,48.0,48.0,100,30.03,1.0,Calm,Calm,-,N/A,,Overcast,0,2012-10-10 11:53:00
8:04 AM,48.2,48.2,100,30.00,0.5,Calm,Calm,-,N/A,Fog,Fog,0,2012-10-10 12:04:00
8:17 AM,50.0,48.2,94,29.99,0.5,South,3.5,-,N/A,Fog,Fog,190,2012-10-10 12:17:00
8:53 AM,51.1,50.0,96,30.02,0.5,SSE,4.6,-,N/A,Fog,Fog,160,2012-10-10 12:53:00
9:00 AM,50.0,48.2,94,29.99,2.0,South,4.6,-,N/A,,Overcast,180,2012-10-10 13:00:00
9:13 AM,50.0,48.2,94,30.00,1.0,WSW,10.4,-,N/A,,Overcast,240,2012-10-10 13:13:00
9:45 AM,51.8,46.4,82,30.00,1.0,SW,9.2,-,N/A,,Scattered Clouds,230,2012-10-10 13:45:00
9:53 AM,51.1,46.9,86,30.03,1.0,SW,4.6,-,N/A,,Clear,230,2012-10-10 13:53:00
10:00 AM,53.6,46.4,77,29.99,8.0,SW,6.9,-,N/A,,Clear,220,2012-10-10 14:00:00
10:53 AM,55.9,44.1,64,30.01,10.0,WSW,13.8,19.6,N/A,,Clear,240,2012-10-10 14:53:00
11:53 AM,57.9,44.1,60,29.99,10.0,SW,11.5,18.4,N/A,,Mostly Cloudy,230,2012-10-10 15:53:00
12:53 PM,60.1,45.0,57,29.97,10.0,South,9.2,-,N/A,,Mostly Cloudy,190,2012-10-10 16:53:00
1:53 PM,64.0,44.1,48,29.92,10.0,WSW,12.7,17.3,N/A,,Overcast,240,2012-10-10 17:53:00
2:53 PM,64.9,44.1,47,29.90,10.0,WSW,12.7,21.9,N/A,,Scattered Clouds,250,2012-10-10 18:53:00
3:53 PM,66.0,44.1,45,29.89,10.0,West,15.0,25.3,N/A,,Mostly Cloudy,260,2012-10-10 19:53:00
4:53 PM,63.0,45.0,52,29.90,10.0,West,16.1,23.0,N/A,,Overcast,280,2012-10-10 20:53:00
5:53 PM,59.0,46.9,64,29.95,10.0,WNW,19.6,25.3,N/A,,Overcast,290,2012-10-10 21:53:00
6:53 PM,55.0,43.0,64,30.00,10.0,WNW,15.0,-,N/A,,Scattered Clouds,290,2012-10-10 22:53:00
7:53 PM,53.1,41.0,64,30.04,10.0,West,13.8,21.9,N/A,,Clear,280,2012-10-10 23:53:00
8:53 PM,51.1,39.9,66,30.06,10.0,West,8.1,-,N/A,,Clear,280,2012-10-11 00:53:00
9:53 PM,51.1,39.9,66,30.09,10.0,WSW,4.6,-,N/A,,Clear,250,2012-10-11 01:53:00
10:53 PM,50.0,39.9,68,30.11,10.0,West,6.9,-,N/A,,Scattered Clouds,270,2012-10-11 02:53:00
11:53 PM,48.0,39.9,74,30.12,10.0,Calm,Calm,-,N/A,,Partly Cloudy,0,2012-10-11 03:53:00